This is the latest recevied weather packets stored in our database for station/object KD4UFD. If no packets are shown the sender has not sent any weather packets the latest 1 day(s).
| Time | Temp. | Humidity | Pressure | Rain* | Wind** | Luminosity | Snow |
|---|---|---|---|---|---|---|---|
| 1778022099 | 23.89° C | 50% | 1010 hPa | 0 mm | 2.68 m/s, 207° | 84 W/m² | - |
| 1778021795 | 23.89° C | 51% | 1010.3 hPa | 0 mm | 1.34 m/s, 235° | 94 W/m² | - |
| 1778021491 | 23.89° C | 52% | 1010.3 hPa | 0 mm | 0.45 m/s, 235° | 115 W/m² | - |
| 1778021188 | 23.89° C | 51% | 1010.3 hPa | 0 mm | 1.34 m/s, 233° | 128 W/m² | - |
| 1778020885 | 24.44° C | 51% | 1010.3 hPa | 0 mm | 1.34 m/s, 198° | 157 W/m² | - |
| 1778020583 | 24.44° C | 51% | 1010.4 hPa | 0 mm | 1.34 m/s, 237° | 216 W/m² | - |
| 1778020279 | 23.89° C | 53% | 1010.4 hPa | 0 mm | 0.45 m/s, 218° | 246 W/m² | - |
| 1778019975 | 23.89° C | 51% | 1010.6 hPa | 0 mm | 1.34 m/s, 227° | 147 W/m² | - |
| 1778019671 | 23.89° C | 51% | 1010.5 hPa | 0 mm | 0 m/s | 139 W/m² | - |
| 1778019369 | 23.89° C | 51% | 1010.7 hPa | 0 mm | 2.24 m/s, 234° | 133 W/m² | - |
| 1778019065 | 23.89° C | 50% | 1010.7 hPa | 0 mm | 1.79 m/s, 211° | 169 W/m² | - |
| 1778018763 | 23.89° C | 51% | 1010.7 hPa | 0 mm | 0.89 m/s, 220° | 163 W/m² | - |
| 1778018460 | 23.89° C | 52% | 1010.7 hPa | 0 mm | 0.89 m/s, 225° | 174 W/m² | - |
| 1778018158 | 23.89° C | 51% | 1010.7 hPa | 0 mm | 0.89 m/s, 345° | 173 W/m² | - |
| 1778017855 | 23.89° C | 51% | 1010.5 hPa | 0 mm | 0.89 m/s, 235° | 186 W/m² | - |
| 1778017554 | 23.89° C | 49% | 1010.7 hPa | 0 mm | 2.24 m/s, 228° | 214 W/m² | - |
| 1778017250 | 23.89° C | 50% | 1010.7 hPa | 0 mm | 0.45 m/s, 356° | 212 W/m² | - |
| 1778016948 | 23.89° C | 49% | 1010.6 hPa | 0 mm | 1.34 m/s, 205° | 204 W/m² | - |
| 1778016644 | 24.44° C | 49% | 1010.9 hPa | 0 mm | 0.45 m/s, 254° | 219 W/m² | - |
| 1778016340 | 24.44° C | 47% | 1011 hPa | 0 mm | 1.79 m/s, 236° | 230 W/m² | - |
| 1778016038 | 24.44° C | 49% | 1010.8 hPa | 0 mm | 0.45 m/s, 225° | 247 W/m² | - |
| 1778015735 | 24.44° C | 46% | 1011 hPa | 0 mm | 1.34 m/s, 277° | 280 W/m² | - |
| 1778015431 | 24.44° C | 46% | 1011.1 hPa | 0 mm | 1.79 m/s, 338° | 342 W/m² | - |
| 1778015128 | 25° C | 45% | 1010.9 hPa | 0 mm | 0.89 m/s, 240° | 212 W/m² | - |
| 1778014826 | 25° C | 47% | 1010.9 hPa | 0 mm | 1.79 m/s, 263° | 424 W/m² | - |
* Rain latest hour (hover to see other rain measurements)
** Current wind speed in m/s (hover to see current wind gust speed)